Time;durP1;ratioP1;P1;durP2;ratioP2;P2;SDS_P1;SDS_P2;PMS_P1;PMS_P2;Temp;Humidity;BMP_temperature;BMP_pressure;BME280_temperature;BME280_humidity;BME280_pressure;Samples;Min_cycle;Max_cycle;Signal;HPM_P1;HPM_P2
2023/10/03 00:00:13;;;;;;;58.15;25.25;;;;;;;;;;2076061;28;20045;-57
2023/10/03 00:01:15;;;;;;;58.33;23.88;;;;;;;;;;2075980;28;20050;-57
2023/10/03 00:02:16;;;;;;;51.10;22.25;;;;;;;;;;2076134;28;20049;-59
2023/10/03 00:03:17;;;;;;;57.10;24.95;;;;;;;;;;2075712;28;20497;-57
2023/10/03 00:04:19;;;;;;;56.60;24.05;;;;;;;;;;2075844;28;20042;-57
2023/10/03 00:05:22;;;;;;;57.20;23.65;;;;;;;;;;2074515;28;20371;-57
2023/10/03 00:06:22;;;;;;;53.95;23.67;;;;;;;;;;2074666;28;20038;-57
2023/10/03 00:07:23;;;;;;;55.78;22.50;;;;;;;;;;2074668;28;20042;-57
2023/10/03 00:08:26;;;;;;;52.97;22.55;;;;;;;;;;2074411;28;20037;-58
2023/10/03 00:09:28;;;;;;;53.65;24.40;;;;;;;;;;2074152;28;20061;-57
2023/10/03 00:10:29;;;;;;;54.47;22.88;;;;;;;;;;2074071;28;20061;-57
2023/10/03 00:11:30;;;;;;;53.92;22.33;;;;;;;;;;2073750;28;20082;-57
2023/10/03 00:12:30;;;;;;;57.60;23.48;;;;;;;;;;2074385;28;20087;-58
2023/10/03 00:13:33;;;;;;;53.53;22.70;;;;;;;;;;2074523;28;20034;-57
2023/10/03 00:14:35;;;;;;;54.13;23.00;;;;;;;;;;2073624;28;20038;-57
2023/10/03 00:15:39;;;;;;;58.28;23.05;;;;;;;;;;2038166;28;1053524;-57
2023/10/03 00:16:39;;;;;;;55.25;22.85;;;;;;;;;;2074720;28;20046;-57
2023/10/03 00:17:40;;;;;;;51.88;22.65;;;;;;;;;;2074434;28;20022;-58
2023/10/03 00:18:41;;;;;;;57.10;23.75;;;;;;;;;;2074812;28;20057;-57
2023/10/03 00:19:42;;;;;;;52.60;21.33;;;;;;;;;;2074317;28;20037;-58
2023/10/03 00:20:43;;;;;;;56.20;22.88;;;;;;;;;;2074425;28;20049;-57
2023/10/03 00:21:43;;;;;;;52.35;22.63;;;;;;;;;;2074693;28;20097;-57
2023/10/03 00:22:44;;;;;;;53.40;23.23;;;;;;;;;;2075001;28;20077;-57
2023/10/03 00:23:45;;;;;;;50.35;21.17;;;;;;;;;;2075047;28;20056;-57
2023/10/03 00:24:46;;;;;;;53.13;21.80;;;;;;;;;;2074897;28;20386;-57
2023/10/03 00:25:47;;;;;;;61.30;22.77;;;;;;;;;;2074888;28;20066;-57
2023/10/03 00:26:47;;;;;;;51.65;21.90;;;;;;;;;;2074511;28;20156;-58
2023/10/03 00:27:51;;;;;;;57.03;23.30;;;;;;;;;;2075322;28;20037;-57
2023/10/03 00:28:52;;;;;;;52.70;22.98;;;;;;;;;;2074985;28;20033;-57
2023/10/03 00:29:53;;;;;;;55.83;21.38;;;;;;;;;;2074772;28;20046;-58
2023/10/03 00:30:53;;;;;;;53.17;22.98;;;;;;;;;;2074859;28;20057;-62
2023/10/03 00:31:54;;;;;;;51.38;22.88;;;;;;;;;;2074110;28;20504;-57
2023/10/03 00:33:02;;;;;;;51.80;21.48;;;;;;;;;;2074677;28;20033;-57
2023/10/03 00:34:03;;;;;;;51.58;21.05;;;;;;;;;;2074814;28;20045;-57
2023/10/03 00:35:04;;;;;;;51.30;20.60;;;;;;;;;;2074074;28;20087;-58
2023/10/03 00:36:05;;;;;;;49.97;21.55;;;;;;;;;;2073442;28;20379;-57
2023/10/03 00:37:06;;;;;;;52.30;21.13;;;;;;;;;;2073897;28;20049;-58
2023/10/03 00:38:09;;;;;;;46.90;20.38;;;;;;;;;;2074353;28;20105;-57
2023/10/03 00:39:10;;;;;;;52.90;22.48;;;;;;;;;;2073566;28;20049;-57
2023/10/03 00:40:17;;;;;;;50.60;21.52;;;;;;;;;;2074294;28;20050;-57
2023/10/03 00:41:19;;;;;;;50.25;21.08;;;;;;;;;;2074169;28;20490;-57
2023/10/03 00:42:20;;;;;;;51.95;21.65;;;;;;;;;;2074738;28;20061;-58
2023/10/03 00:43:21;;;;;;;50.55;21.33;;;;;;;;;;2074616;28;20049;-58
2023/10/03 00:44:22;;;;;;;50.10;21.45;;;;;;;;;;2073499;28;20445;-58
2023/10/03 00:45:25;;;;;;;47.90;20.77;;;;;;;;;;2073340;28;20046;-58
2023/10/03 00:46:27;;;;;;;50.03;20.60;;;;;;;;;;2074749;28;20437;-57
2023/10/03 00:47:29;;;;;;;53.53;22.13;;;;;;;;;;2073979;28;20038;-58
2023/10/03 00:48:30;;;;;;;50.42;21.35;;;;;;;;;;2065630;28;20050;-57
2023/10/03 00:49:31;;;;;;;50.63;21.67;;;;;;;;;;2065996;28;20410;-58
2023/10/03 00:50:33;;;;;;;49.08;20.58;;;;;;;;;;2073764;28;20216;-57
2023/10/03 00:51:35;;;;;;;51.55;22.73;;;;;;;;;;2073226;28;20042;-58
2023/10/03 00:52:37;;;;;;;52.45;21.88;;;;;;;;;;2073637;28;20394;-57
2023/10/03 00:53:38;;;;;;;53.13;23.30;;;;;;;;;;2074707;28;20034;-58
2023/10/03 00:54:40;;;;;;;49.53;20.60;;;;;;;;;;2074103;28;20042;-57
2023/10/03 00:55:43;;;;;;;50.45;20.80;;;;;;;;;;2065841;28;20030;-57
2023/10/03 00:56:45;;;;;;;49.30;22.05;;;;;;;;;;2073302;28;20517;-57
2023/10/03 00:57:45;;;;;;;52.13;22.00;;;;;;;;;;2074749;28;20473;-57
2023/10/03 00:58:47;;;;;;;49.60;21.40;;;;;;;;;;2074677;28;20065;-58
2023/10/03 00:59:48;;;;;;;50.25;21.67;;;;;;;;;;2074088;28;20041;-57
2023/10/03 01:00:54;;;;;;;51.33;20.85;;;;;;;;;;2074636;28;20056;-57
2023/10/03 01:02:02;;;;;;;52.55;22.23;;;;;;;;;;2073613;28;20046;-57
2023/10/03 01:03:03;;;;;;;48.97;21.45;;;;;;;;;;2074128;28;20042;-58
2023/10/03 01:04:09;;;;;;;51.10;21.45;;;;;;;;;;2074818;28;20038;-58
2023/10/03 01:05:18;;;;;;;49.60;21.83;;;;;;;;;;2074354;28;20069;-58
2023/10/03 01:06:19;;;;;;;52.90;20.48;;;;;;;;;;2073421;28;20046;-57
2023/10/03 01:07:19;;;;;;;49.13;20.73;;;;;;;;;;2074108;28;20494;-57
2023/10/03 01:08:21;;;;;;;50.58;21.90;;;;;;;;;;2074595;28;20034;-57
2023/10/03 01:09:27;;;;;;;51.53;21.67;;;;;;;;;;2074329;28;20034;-57
2023/10/03 01:10:28;;;;;;;51.45;21.05;;;;;;;;;;2074087;28;20513;-57
2023/10/03 01:11:29;;;;;;;45.88;19.88;;;;;;;;;;2073379;28;20089;-58
2023/10/03 01:12:31;;;;;;;52.90;19.65;;;;;;;;;;2073595;28;20045;-57
2023/10/03 01:13:32;;;;;;;49.60;19.60;;;;;;;;;;2073837;28;20052;-57
2023/10/03 01:14:34;;;;;;;46.95;20.35;;;;;;;;;;2073119;28;20100;-57
2023/10/03 01:15:35;;;;;;;45.97;19.98;;;;;;;;;;2074537;28;20057;-57
2023/10/03 01:16:36;;;;;;;48.28;19.58;;;;;;;;;;2074610;28;20029;-56
2023/10/03 01:17:37;;;;;;;50.38;21.35;;;;;;;;;;2073979;28;20038;-57
2023/10/03 01:18:41;;;;;;;49.28;20.15;;;;;;;;;;2065110;28;20050;-58
2023/10/03 01:19:43;;;;;;;51.53;19.73;;;;;;;;;;2065959;28;20486;-58
2023/10/03 01:20:48;;;;;;;49.72;20.02;;;;;;;;;;2065813;28;20043;-58
2023/10/03 01:21:50;;;;;;;48.85;20.20;;;;;;;;;;2073644;28;20045;-57
2023/10/03 01:22:54;;;;;;;48.00;20.45;;;;;;;;;;2074064;28;20041;-57
2023/10/03 01:23:54;;;;;;;50.17;20.52;;;;;;;;;;2074337;28;20073;-57
2023/10/03 01:24:56;;;;;;;45.03;19.02;;;;;;;;;;2072878;28;20038;-58
2023/10/03 01:25:57;;;;;;;47.42;18.92;;;;;;;;;;2065046;28;20047;-58
2023/10/03 01:26:58;;;;;;;41.88;17.23;;;;;;;;;;2073755;28;20030;-57
2023/10/03 01:27:58;;;;;;;48.05;19.92;;;;;;;;;;2073338;28;20045;-57
2023/10/03 01:28:59;;;;;;;48.15;20.58;;;;;;;;;;2073391;28;20041;-57
2023/10/03 01:30:01;;;;;;;50.67;21.42;;;;;;;;;;2073723;28;20080;-58
2023/10/03 01:31:01;;;;;;;43.55;17.67;;;;;;;;;;2074394;28;20030;-57
2023/10/03 01:32:02;;;;;;;44.75;18.83;;;;;;;;;;2073621;28;20054;-58
2023/10/03 01:33:03;;;;;;;42.20;17.98;;;;;;;;;;2064994;28;20125;-57
2023/10/03 01:34:05;;;;;;;46.42;19.60;;;;;;;;;;2065793;28;20042;-57
2023/10/03 01:35:07;;;;;;;44.00;19.30;;;;;;;;;;2072756;28;20068;-58
2023/10/03 01:36:08;;;;;;;42.50;17.77;;;;;;;;;;2065564;28;20038;-58
2023/10/03 01:37:08;;;;;;;46.58;18.77;;;;;;;;;;2065856;28;20042;-57
2023/10/03 01:38:09;;;;;;;49.20;18.83;;;;;;;;;;2074322;28;20091;-57
2023/10/03 01:39:11;;;;;;;44.90;18.67;;;;;;;;;;2073572;28;20048;-57
2023/10/03 01:40:16;;;;;;;46.20;19.45;;;;;;;;;;2072908;28;20057;-57
2023/10/03 01:41:18;;;;;;;39.47;16.60;;;;;;;;;;2073640;28;20045;-57
2023/10/03 01:42:18;;;;;;;40.50;16.85;;;;;;;;;;2073752;28;20053;-57
2023/10/03 01:43:19;;;;;;;40.70;17.00;;;;;;;;;;2073709;28;20444;-57
2023/10/03 01:44:20;;;;;;;43.22;17.92;;;;;;;;;;2073748;28;20138;-57
2023/10/03 01:45:21;;;;;;;45.35;18.23;;;;;;;;;;2072644;28;20038;-57
2023/10/03 01:46:22;;;;;;;39.63;16.27;;;;;;;;;;2074296;28;20068;-57
2023/10/03 01:47:24;;;;;;;41.00;16.45;;;;;;;;;;2073751;28;20371;-57
2023/10/03 01:48:25;;;;;;;39.85;17.00;;;;;;;;;;2073743;28;20050;-57
2023/10/03 01:49:26;;;;;;;41.88;16.98;;;;;;;;;;2073689;28;20367;-57
2023/10/03 01:50:29;;;;;;;43.25;17.73;;;;;;;;;;2074334;28;20034;-58
2023/10/03 01:51:30;;;;;;;40.45;16.27;;;;;;;;;;2073479;28;20041;-57
2023/10/03 01:52:31;;;;;;;43.90;16.40;;;;;;;;;;2073787;28;20068;-57
2023/10/03 01:53:32;;;;;;;39.13;16.42;;;;;;;;;;2074262;28;20033;-57
2023/10/03 01:54:34;;;;;;;40.30;16.70;;;;;;;;;;2074123;28;20363;-57
2023/10/03 01:55:35;;;;;;;40.47;16.90;;;;;;;;;;2072718;28;20494;-57
2023/10/03 01:56:36;;;;;;;32.45;14.35;;;;;;;;;;2073479;28;20033;-57
2023/10/03 01:57:37;;;;;;;39.42;15.90;;;;;;;;;;2073485;28;20389;-57
2023/10/03 01:58:40;;;;;;;42.17;15.90;;;;;;;;;;2072608;28;20042;-57
2023/10/03 01:59:42;;;;;;;39.60;16.58;;;;;;;;;;2065413;28;20034;-57
2023/10/03 02:00:43;;;;;;;35.53;15.05;;;;;;;;;;2065331;28;20057;-57
2023/10/03 02:01:43;;;;;;;39.67;15.70;;;;;;;;;;2064848;28;20125;-57
2023/10/03 02:02:44;;;;;;;36.75;15.90;;;;;;;;;;2064837;28;20498;-57
2023/10/03 02:03:45;;;;;;;37.50;16.60;;;;;;;;;;2073021;28;20057;-57
2023/10/03 02:04:46;;;;;;;35.22;15.10;;;;;;;;;;2074067;28;20037;-57
2023/10/03 02:05:48;;;;;;;36.05;15.18;;;;;;;;;;2065199;28;20524;-57
2023/10/03 02:06:51;;;;;;;35.10;15.10;;;;;;;;;;2058013;28;20038;-57
2023/10/03 02:07:52;;;;;;;35.63;15.57;;;;;;;;;;2072819;28;20045;-58
2023/10/03 02:08:53;;;;;;;38.65;15.90;;;;;;;;;;2073088;28;20045;-57
2023/10/03 02:09:55;;;;;;;34.67;13.88;;;;;;;;;;2073300;28;20050;-57
2023/10/03 02:10:56;;;;;;;41.78;15.10;;;;;;;;;;2073092;28;20053;-58
2023/10/03 02:11:59;;;;;;;36.20;14.60;;;;;;;;;;2065230;28;20046;-57
2023/10/03 02:13:01;;;;;;;36.15;15.20;;;;;;;;;;2065062;28;20418;-57
2023/10/03 02:14:07;;;;;;;38.03;15.70;;;;;;;;;;2073522;28;20033;-58
2023/10/03 02:15:09;;;;;;;33.92;13.90;;;;;;;;;;2073172;28;20417;-58
2023/10/03 02:16:10;;;;;;;35.67;14.15;;;;;;;;;;2064617;28;20057;-57
2023/10/03 02:17:11;;;;;;;38.00;15.07;;;;;;;;;;2064763;28;20046;-57
2023/10/03 02:18:19;;;;;;;37.13;14.48;;;;;;;;;;2072512;28;20125;-58
2023/10/03 02:19:20;;;;;;;35.33;14.85;;;;;;;;;;2073829;28;20037;-57
2023/10/03 02:20:21;;;;;;;34.60;14.15;;;;;;;;;;2073424;28;20037;-57
2023/10/03 02:21:23;;;;;;;37.58;15.63;;;;;;;;;;2074128;28;20038;-58
2023/10/03 02:22:24;;;;;;;37.05;15.68;;;;;;;;;;2073673;28;20520;-57
2023/10/03 02:23:25;;;;;;;34.05;14.93;;;;;;;;;;2073350;28;20103;-57
2023/10/03 02:24:26;;;;;;;34.33;13.93;;;;;;;;;;2073490;28;20041;-58
2023/10/03 02:25:30;;;;;;;32.15;13.57;;;;;;;;;;2073902;28;20053;-57
2023/10/03 02:26:32;;;;;;;34.90;13.98;;;;;;;;;;2074005;28;20046;-57
2023/10/03 02:27:32;;;;;;;31.98;14.02;;;;;;;;;;2073563;28;20045;-57
2023/10/03 02:28:33;;;;;;;32.30;14.45;;;;;;;;;;2073693;28;20450;-57
2023/10/03 02:29:34;;;;;;;34.28;15.50;;;;;;;;;;2073694;28;20514;-58
2023/10/03 02:30:35;;;;;;;33.72;14.73;;;;;;;;;;2073298;28;20052;-57
2023/10/03 02:31:36;;;;;;;33.45;13.73;;;;;;;;;;2074034;28;20028;-57
2023/10/03 02:32:36;;;;;;;34.15;13.95;;;;;;;;;;2073438;28;20493;-57
2023/10/03 02:33:39;;;;;;;33.08;13.20;;;;;;;;;;2073310;28;20026;-57
2023/10/03 02:34:40;;;;;;;33.25;12.88;;;;;;;;;;2073248;28;20045;-57
2023/10/03 02:35:44;;;;;;;33.05;13.93;;;;;;;;;;2064606;28;20049;-58
2023/10/03 02:36:46;;;;;;;33.35;14.13;;;;;;;;;;2072562;28;20060;-57
2023/10/03 02:37:47;;;;;;;34.05;13.95;;;;;;;;;;2073272;28;20049;-57
2023/10/03 02:38:50;;;;;;;32.17;14.00;;;;;;;;;;2072698;28;20048;-58
2023/10/03 02:39:51;;;;;;;29.88;12.43;;;;;;;;;;2064694;28;20038;-58
2023/10/03 02:40:57;;;;;;;33.15;13.55;;;;;;;;;;2064444;28;20050;-58
2023/10/03 02:41:58;;;;;;;31.23;13.05;;;;;;;;;;2073274;28;20478;-58
2023/10/03 02:42:59;;;;;;;31.63;13.43;;;;;;;;;;2072986;28;20046;-58
2023/10/03 02:44:01;;;;;;;31.60;13.68;;;;;;;;;;2064786;28;20042;-57
2023/10/03 02:45:03;;;;;;;34.13;14.52;;;;;;;;;;2064684;28;20046;-57
2023/10/03 02:46:05;;;;;;;32.25;13.02;;;;;;;;;;2072662;28;20437;-57
2023/10/03 02:47:07;;;;;;;35.67;13.45;;;;;;;;;;2073339;28;20038;-58
2023/10/03 02:48:13;;;;;;;36.58;13.90;;;;;;;;;;2072670;28;20057;-58
2023/10/03 02:49:14;;;;;;;34.47;13.73;;;;;;;;;;2065874;28;20181;-58
2023/10/03 02:50:15;;;;;;;30.00;13.88;;;;;;;;;;2064709;28;20482;-57
2023/10/03 02:51:16;;;;;;;34.03;13.00;;;;;;;;;;2072641;28;20053;-58
2023/10/03 02:52:17;;;;;;;29.60;13.60;;;;;;;;;;2072925;28;20088;-58
2023/10/03 02:53:19;;;;;;;31.13;12.35;;;;;;;;;;2065048;28;20050;-57
2023/10/03 02:54:22;;;;;;;33.08;14.02;;;;;;;;;;2072529;28;20093;-57
2023/10/03 02:55:23;;;;;;;32.60;12.75;;;;;;;;;;2073758;28;20049;-57
2023/10/03 02:56:24;;;;;;;35.10;14.82;;;;;;;;;;2073151;28;20088;-58
2023/10/03 02:57:25;;;;;;;33.47;13.40;;;;;;;;;;2065131;28;20038;-57
2023/10/03 02:58:26;;;;;;;31.83;12.63;;;;;;;;;;2064987;28;20042;-57
2023/10/03 02:59:27;;;;;;;31.77;13.20;;;;;;;;;;2064135;28;20046;-56
2023/10/03 03:00:28;;;;;;;35.63;14.30;;;;;;;;;;2072339;28;20046;-57
2023/10/03 03:01:31;;;;;;;34.72;13.60;;;;;;;;;;2073715;28;20037;-58
2023/10/03 03:02:32;;;;;;;33.25;13.23;;;;;;;;;;2073116;28;20048;-57
2023/10/03 03:03:33;;;;;;;30.88;12.82;;;;;;;;;;2072641;28;20052;-58
2023/10/03 03:04:36;;;;;;;29.48;13.07;;;;;;;;;;2073401;28;20038;-57
2023/10/03 03:05:37;;;;;;;32.10;12.95;;;;;;;;;;2072643;28;20042;-57
2023/10/03 03:06:42;;;;;;;31.02;13.18;;;;;;;;;;2064804;28;20047;-57
2023/10/03 03:07:46;;;;;;;33.67;13.10;;;;;;;;;;2065004;28;20034;-57
2023/10/03 03:08:47;;;;;;;34.08;13.45;;;;;;;;;;2065344;28;20513;-58
2023/10/03 03:09:56;;;;;;;28.98;12.32;;;;;;;;;;2064933;28;20045;-58
2023/10/03 03:10:57;;;;;;;28.83;13.43;;;;;;;;;;2065380;28;20072;-57
2023/10/03 03:12:00;;;;;;;34.28;13.35;;;;;;;;;;2072742;28;20046;-57
2023/10/03 03:13:01;;;;;;;28.67;12.57;;;;;;;;;;2073343;28;20038;-57
2023/10/03 03:14:02;;;;;;;31.65;12.85;;;;;;;;;;2072729;28;20053;-57
2023/10/03 03:15:05;;;;;;;29.80;13.00;;;;;;;;;;2072246;28;20064;-58
2023/10/03 03:16:07;;;;;;;31.15;12.15;;;;;;;;;;2073108;28;20041;-58
2023/10/03 03:17:14;;;;;;;34.55;13.50;;;;;;;;;;2064089;28;20057;-57
2023/10/03 03:18:14;;;;;;;31.88;13.43;;;;;;;;;;2073475;28;20048;-57
2023/10/03 03:19:15;;;;;;;34.60;13.07;;;;;;;;;;2073911;28;20040;-57
2023/10/03 03:20:24;;;;;;;31.95;12.65;;;;;;;;;;2073154;28;20049;-57
2023/10/03 03:21:25;;;;;;;33.20;12.63;;;;;;;;;;2073160;28;20117;-57
2023/10/03 03:22:26;;;;;;;31.20;12.57;;;;;;;;;;2073407;28;20037;-58
2023/10/03 03:23:30;;;;;;;29.33;12.70;;;;;;;;;;2073497;28;20474;-58
2023/10/03 03:24:34;;;;;;;30.23;13.48;;;;;;;;;;2073531;28;20405;-58
2023/10/03 03:25:37;;;;;;;30.75;12.27;;;;;;;;;;2073485;28;20056;-58
2023/10/03 03:26:39;;;;;;;28.42;12.30;;;;;;;;;;2073910;28;20468;-57
2023/10/03 03:27:41;;;;;;;36.03;12.70;;;;;;;;;;2073162;28;20049;-57
2023/10/03 03:28:43;;;;;;;31.83;12.80;;;;;;;;;;2073882;28;20037;-58
2023/10/03 03:30:33;;;;;;;28.80;12.30;;;;;;;;;;2073368;28;20053;-58
2023/10/03 03:32:20;;;;;;;26.80;11.45;;;;;;;;;;2075570;28;20042;-56
2023/10/03 03:33:23;;;;;;;30.13;13.35;;;;;;;;;;2074594;28;20080;-57
2023/10/03 03:34:23;;;;;;;31.55;13.00;;;;;;;;;;2075517;28;20466;-58
2023/10/03 03:35:24;;;;;;;29.10;11.75;;;;;;;;;;2075461;28;20030;-58
2023/10/03 03:36:29;;;;;;;32.13;13.00;;;;;;;;;;2074086;28;20050;-58
2023/10/03 03:37:37;;;;;;;25.50;11.02;;;;;;;;;;2073374;28;20057;-58
2023/10/03 03:38:38;;;;;;;28.05;11.85;;;;;;;;;;2073754;28;20029;-57
2023/10/03 03:39:39;;;;;;;26.30;11.18;;;;;;;;;;2073126;28;20045;-58
2023/10/03 03:40:39;;;;;;;27.52;11.13;;;;;;;;;;2073882;28;20037;-57
2023/10/03 03:41:41;;;;;;;30.52;11.63;;;;;;;;;;2073703;28;20046;-58
2023/10/03 03:42:42;;;;;;;30.85;12.48;;;;;;;;;;2073921;28;20030;-57
2023/10/03 03:43:43;;;;;;;31.20;11.40;;;;;;;;;;2073099;28;20045;-57
2023/10/03 03:44:45;;;;;;;22.98;10.82;;;;;;;;;;2073498;28;20038;-58
2023/10/03 03:45:46;;;;;;;27.10;11.27;;;;;;;;;;2073187;28;20048;-57
2023/10/03 03:46:48;;;;;;;26.40;11.27;;;;;;;;;;2073063;28;20049;-58
2023/10/03 03:47:50;;;;;;;25.45;11.85;;;;;;;;;;2073687;28;20037;-57
2023/10/03 03:48:51;;;;;;;25.63;11.13;;;;;;;;;;2072996;28;20045;-57
2023/10/03 03:49:52;;;;;;;26.70;10.68;;;;;;;;;;2073379;28;20041;-58
2023/10/03 03:50:53;;;;;;;27.88;12.15;;;;;;;;;;2073078;28;20429;-57
2023/10/03 03:51:54;;;;;;;28.15;12.05;;;;;;;;;;2073540;28;20475;-58
2023/10/03 03:52:58;;;;;;;26.02;10.52;;;;;;;;;;2073804;28;20046;-58
2023/10/03 03:54:03;;;;;;;26.98;11.00;;;;;;;;;;2075393;28;20037;-57
2023/10/03 03:55:04;;;;;;;25.63;10.65;;;;;;;;;;2074768;28;20045;-58
2023/10/03 03:56:07;;;;;;;27.05;11.57;;;;;;;;;;2074852;28;20057;-58
2023/10/03 03:57:08;;;;;;;23.20;10.10;;;;;;;;;;2075338;28;20053;-58
2023/10/03 03:58:14;;;;;;;24.38;9.95;;;;;;;;;;2074302;28;20068;-58
2023/10/03 03:59:15;;;;;;;27.40;11.52;;;;;;;;;;2075230;28;20053;-57
2023/10/03 04:00:23;;;;;;;29.42;10.77;;;;;;;;;;2074367;28;20053;-58
2023/10/03 04:01:23;;;;;;;29.83;11.95;;;;;;;;;;2075170;28;20505;-57
2023/10/03 04:02:24;;;;;;;24.95;10.43;;;;;;;;;;2075029;28;20046;-57
2023/10/03 04:03:27;;;;;;;27.67;10.88;;;;;;;;;;2075149;28;20033;-58
2023/10/03 04:04:28;;;;;;;24.10;10.35;;;;;;;;;;2075089;28;20041;-58
2023/10/03 04:05:29;;;;;;;27.23;10.20;;;;;;;;;;2075058;28;20045;-57
2023/10/03 04:06:31;;;;;;;25.13;9.65;;;;;;;;;;2074980;28;20033;-58
2023/10/03 04:07:33;;;;;;;25.15;10.35;;;;;;;;;;2075216;28;20049;-58
2023/10/03 04:08:35;;;;;;;25.00;10.93;;;;;;;;;;2075194;28;20026;-58
2023/10/03 04:09:35;;;;;;;23.95;10.70;;;;;;;;;;2075097;28;20458;-58
2023/10/03 04:10:37;;;;;;;30.02;11.77;;;;;;;;;;2074981;28;20157;-57
2023/10/03 04:11:37;;;;;;;26.92;11.27;;;;;;;;;;2075048;28;20041;-57
2023/10/03 04:12:41;;;;;;;26.73;10.90;;;;;;;;;;2075204;28;20488;-58
2023/10/03 04:13:55;;;;;;;25.38;10.73;;;;;;;;;;2075041;28;20037;-57
2023/10/03 04:14:55;;;;;;;27.58;10.00;;;;;;;;;;2074200;28;20061;-57
2023/10/03 04:16:02;;;;;;;26.83;9.48;;;;;;;;;;2074898;28;20072;-57
2023/10/03 04:17:03;;;;;;;25.98;10.55;;;;;;;;;;2075053;28;20042;-57
2023/10/03 04:18:04;;;;;;;23.15;9.82;;;;;;;;;;2075248;28;20052;-58
2023/10/03 04:19:06;;;;;;;27.90;10.10;;;;;;;;;;2074958;28;20390;-57
2023/10/03 04:20:19;;;;;;;27.58;11.35;;;;;;;;;;2074807;28;20489;-57
2023/10/03 04:21:20;;;;;;;22.70;9.38;;;;;;;;;;2075093;28;20034;-58
2023/10/03 04:22:21;;;;;;;28.23;9.98;;;;;;;;;;2074996;28;20046;-58
2023/10/03 04:23:22;;;;;;;27.85;11.02;;;;;;;;;;2074638;28;20057;-58
2023/10/03 04:24:22;;;;;;;28.98;11.35;;;;;;;;;;2074986;28;20053;-57
2023/10/03 04:25:24;;;;;;;21.88;9.70;;;;;;;;;;2074438;28;20050;-58
2023/10/03 04:26:25;;;;;;;23.80;10.18;;;;;;;;;;2074882;28;20045;-58
2023/10/03 04:27:25;;;;;;;26.75;10.55;;;;;;;;;;2075008;28;20046;-58
2023/10/03 04:28:26;;;;;;;26.58;10.30;;;;;;;;;;2074406;28;20121;-58
2023/10/03 04:29:27;;;;;;;21.33;9.13;;;;;;;;;;2074577;28;20498;-57
2023/10/03 04:30:28;;;;;;;22.75;9.52;;;;;;;;;;2074530;28;20053;-57
2023/10/03 04:31:28;;;;;;;24.05;9.90;;;;;;;;;;2074902;28;20033;-57
2023/10/03 04:32:29;;;;;;;23.35;9.25;;;;;;;;;;2075054;28;20038;-57
2023/10/03 04:33:30;;;;;;;24.60;10.30;;;;;;;;;;2074826;28;20433;-57
2023/10/03 04:34:32;;;;;;;22.15;10.13;;;;;;;;;;2074235;28;20045;-57
2023/10/03 04:35:34;;;;;;;25.92;9.88;;;;;;;;;;2074654;28;20054;-58
2023/10/03 04:36:36;;;;;;;21.30;8.82;;;;;;;;;;2074668;28;20033;-58
2023/10/03 04:37:38;;;;;;;22.17;9.23;;;;;;;;;;2074974;28;20034;-58
2023/10/03 04:38:40;;;;;;;27.45;10.57;;;;;;;;;;2074871;28;20029;-57
2023/10/03 04:39:41;;;;;;;28.65;10.85;;;;;;;;;;2074899;28;20037;-57
2023/10/03 04:40:42;;;;;;;20.73;9.38;;;;;;;;;;2073804;28;20049;-59
2023/10/03 04:41:43;;;;;;;23.85;9.57;;;;;;;;;;2074232;28;20041;-57
2023/10/03 04:42:45;;;;;;;21.33;9.38;;;;;;;;;;2074578;28;20037;-57
2023/10/03 04:43:46;;;;;;;22.38;9.85;;;;;;;;;;2074663;28;20038;-57
2023/10/03 04:44:46;;;;;;;22.13;9.45;;;;;;;;;;2074276;28;20470;-57
2023/10/03 04:45:47;;;;;;;22.00;9.18;;;;;;;;;;2074803;28;20045;-58
2023/10/03 04:46:48;;;;;;;23.42;9.70;;;;;;;;;;2074622;28;20041;-57
2023/10/03 04:47:49;;;;;;;23.52;10.13;;;;;;;;;;2074077;28;20045;-57
2023/10/03 04:48:51;;;;;;;22.45;9.35;;;;;;;;;;2074684;28;20401;-58
2023/10/03 04:49:51;;;;;;;22.67;10.02;;;;;;;;;;2074917;28;20035;-57
2023/10/03 04:50:52;;;;;;;22.67;9.63;;;;;;;;;;2074884;28;20037;-57
2023/10/03 04:51:53;;;;;;;26.13;10.65;;;;;;;;;;2074469;28;20054;-57
2023/10/03 04:52:54;;;;;;;23.48;10.10;;;;;;;;;;2074917;28;20053;-58
2023/10/03 04:53:54;;;;;;;22.63;9.27;;;;;;;;;;2074165;28;20053;-57
2023/10/03 04:54:55;;;;;;;22.05;9.02;;;;;;;;;;2074529;28;20621;-57
2023/10/03 04:55:56;;;;;;;26.15;10.57;;;;;;;;;;2074588;28;20481;-57
2023/10/03 04:56:58;;;;;;;24.45;9.75;;;;;;;;;;2074154;28;20050;-57
2023/10/03 04:57:59;;;;;;;23.88;10.15;;;;;;;;;;2074630;28;20477;-58
2023/10/03 04:59:00;;;;;;;22.88;10.02;;;;;;;;;;2074366;28;20046;-57
2023/10/03 05:00:01;;;;;;;23.95;10.35;;;;;;;;;;2073935;28;20055;-58
2023/10/03 05:01:02;;;;;;;22.67;9.48;;;;;;;;;;2074534;28;20054;-57
2023/10/03 05:02:03;;;;;;;24.17;10.13;;;;;;;;;;2074036;28;20471;-57
2023/10/03 05:03:04;;;;;;;22.58;10.18;;;;;;;;;;2073926;28;20046;-58
2023/10/03 05:04:05;;;;;;;25.85;10.27;;;;;;;;;;2074253;28;20038;-62
2023/10/03 05:05:06;;;;;;;23.23;9.60;;;;;;;;;;2074098;28;20038;-58
2023/10/03 05:06:09;;;;;;;25.88;9.55;;;;;;;;;;2074590;28;20046;-58
2023/10/03 05:07:10;;;;;;;22.50;10.02;;;;;;;;;;2074473;28;20042;-58
2023/10/03 05:08:11;;;;;;;21.52;9.63;;;;;;;;;;2074580;28;20038;-58
2023/10/03 05:09:12;;;;;;;22.58;10.68;;;;;;;;;;2074250;28;20050;-58
2023/10/03 05:10:13;;;;;;;23.65;9.75;;;;;;;;;;2074293;28;20042;-55
2023/10/03 05:11:13;;;;;;;23.30;9.77;;;;;;;;;;2074201;28;20497;-57
2023/10/03 05:12:14;;;;;;;24.60;10.15;;;;;;;;;;2074225;28;20037;-58
2023/10/03 05:13:16;;;;;;;23.00;9.68;;;;;;;;;;2073943;28;20049;-58
2023/10/03 05:14:17;;;;;;;23.00;9.98;;;;;;;;;;2074346;28;20053;-57
2023/10/03 05:15:18;;;;;;;21.30;9.27;;;;;;;;;;2073912;28;20474;-57
2023/10/03 05:16:19;;;;;;;22.90;10.05;;;;;;;;;;2077340;28;20046;-57
2023/10/03 05:17:19;;;;;;;22.80;9.20;;;;;;;;;;2074264;28;20065;-58
2023/10/03 05:18:20;;;;;;;22.63;10.45;;;;;;;;;;2074570;28;20386;-57
2023/10/03 05:19:21;;;;;;;23.60;10.05;;;;;;;;;;2074315;28;20042;-58
2023/10/03 05:20:34;;;;;;;20.88;9.07;;;;;;;;;;2074369;28;20060;-58
2023/10/03 05:21:37;;;;;;;23.00;9.65;;;;;;;;;;2073981;28;20030;-57
2023/10/03 05:22:37;;;;;;;20.85;8.77;;;;;;;;;;2073801;28;20026;-58
2023/10/03 05:23:41;;;;;;;27.95;9.73;;;;;;;;;;2074689;28;20123;-58
2023/10/03 05:24:42;;;;;;;22.35;9.93;;;;;;;;;;2073819;28;20038;-58
2023/10/03 05:25:43;;;;;;;21.88;9.57;;;;;;;;;;2073850;28;20033;-58
2023/10/03 05:26:44;;;;;;;24.58;10.48;;;;;;;;;;2074340;28;20036;-58
2023/10/03 05:27:48;;;;;;;20.80;8.88;;;;;;;;;;2074340;28;20064;-58
2023/10/03 05:28:48;;;;;;;21.38;9.18;;;;;;;;;;2074333;28;20030;-59
2023/10/03 05:29:51;;;;;;;21.83;8.45;;;;;;;;;;2074744;28;20410;-58
2023/10/03 05:30:54;;;;;;;21.20;9.38;;;;;;;;;;2074400;28;20029;-58
2023/10/03 05:31:54;;;;;;;23.05;10.48;;;;;;;;;;2074225;28;20038;-58
2023/10/03 05:32:55;;;;;;;22.92;9.45;;;;;;;;;;2074505;28;20073;-59
2023/10/03 05:33:56;;;;;;;23.15;9.88;;;;;;;;;;2074096;28;20073;-57
2023/10/03 05:35:00;;;;;;;21.48;9.90;;;;;;;;;;2074029;28;20401;-58
2023/10/03 05:36:02;;;;;;;22.55;9.43;;;;;;;;;;2074561;28;20041;-58
2023/10/03 05:37:02;;;;;;;21.20;9.50;;;;;;;;;;2074745;28;20038;-58
2023/10/03 05:38:07;;;;;;;21.70;9.25;;;;;;;;;;2074126;28;20049;-58
2023/10/03 05:39:11;;;;;;;23.13;9.45;;;;;;;;;;2073962;28;20050;-57
2023/10/03 05:40:12;;;;;;;23.98;9.77;;;;;;;;;;2073613;28;20052;-58
2023/10/03 05:41:23;;;;;;;22.33;9.90;;;;;;;;;;2074525;28;20045;-58
2023/10/03 05:42:23;;;;;;;22.25;8.68;;;;;;;;;;2074258;28;20034;-57
2023/10/03 05:43:24;;;;;;;19.15;8.77;;;;;;;;;;2073991;28;20038;-58
2023/10/03 05:44:25;;;;;;;22.50;9.95;;;;;;;;;;2065653;28;20130;-57
2023/10/03 05:45:28;;;;;;;22.58;9.50;;;;;;;;;;2073171;28;20044;-57
2023/10/03 05:46:29;;;;;;;22.42;9.50;;;;;;;;;;2074092;28;20046;-57
2023/10/03 05:47:30;;;;;;;20.45;9.23;;;;;;;;;;2074674;28;20056;-57
2023/10/03 05:48:30;;;;;;;19.42;8.80;;;;;;;;;;2074221;28;20046;-57
2023/10/03 05:49:31;;;;;;;20.98;8.90;;;;;;;;;;2074258;28;20038;-58
2023/10/03 05:50:32;;;;;;;18.98;9.23;;;;;;;;;;2074217;28;20053;-58
2023/10/03 05:51:34;;;;;;;23.92;10.40;;;;;;;;;;2074344;28;20034;-58
2023/10/03 05:52:35;;;;;;;20.45;9.45;;;;;;;;;;2073780;28;20037;-58
2023/10/03 05:53:36;;;;;;;20.15;9.50;;;;;;;;;;2074143;28;20049;-58
2023/10/03 05:54:37;;;;;;;23.80;10.25;;;;;;;;;;2073212;28;20048;-58
2023/10/03 05:55:38;;;;;;;23.30;9.80;;;;;;;;;;2073762;28;20501;-57
2023/10/03 05:56:39;;;;;;;19.85;9.18;;;;;;;;;;2073521;28;20053;-57
2023/10/03 05:57:42;;;;;;;22.50;9.38;;;;;;;;;;2074275;28;20041;-57
2023/10/03 05:58:43;;;;;;;19.77;9.52;;;;;;;;;;2074143;28;20037;-58
2023/10/03 05:59:44;;;;;;;20.80;9.52;;;;;;;;;;2074307;28;20439;-58
2023/10/03 06:00:45;;;;;;;22.38;9.43;;;;;;;;;;2073950;28;20386;-57
2023/10/03 06:01:45;;;;;;;21.23;9.98;;;;;;;;;;2073689;28;20033;-58